Time;durP1;ratioP1;P1;durP2;ratioP2;P2;SDS_P1;SDS_P2;PMS_P1;PMS_P2;Temp;Humidity;BMP_temperature;BMP_pressure;BME280_temperature;BME280_humidity;BME280_pressure;Samples;Min_cycle;Max_cycle;Signal;HPM_P1;HPM_P2
2019/07/21 17:48:03;;;;;;;6.1;2.8;;;;;;;25.36;60.51367;966.3139;;;;
2019/07/21 18:19:54;;;;;;;4.6;3.3;;;;;;;25.54;61.43066;966.498;;;;
2019/07/21 18:22:36;;;;;;;5.8;3.6;;;;;;;25.27;61.1084;966.5118;;;;
2019/07/21 18:25:02;;;;;;;4.2;3.8;;;;;;;25.19;61.58398;966.5273;;;;
2019/07/21 18:27:27;;;;;;;4;3.6;;;;;;;25.09;61.38086;966.5114;;;;
2019/07/21 18:29:52;;;;;;;4.5;3.6;;;;;;;25.08;61.58105;966.4844;;;;
2019/07/21 18:32:17;;;;;;;3.8;3.4;;;;;;;25.01;61.31152;966.4493;;;;
2019/07/21 18:34:42;;;;;;;6.1;4.3;;;;;;;24.81;62.08008;966.4812;;;;
2019/07/21 18:39:30;;;;;;;6.6;4.2;;;;;;;24.86;62.7041;966.4966;;;;
2019/07/21 18:41:55;;;;;;;5;3.9;;;;;;;24.82;62.90039;966.5002;;;;
2019/07/21 18:44:20;;;;;;;4.4;3.5;;;;;;;24.79;62.4209;966.546;;;;
2019/07/21 18:46:45;;;;;;;4.5;3.4;;;;;;;24.71;63.5166;966.5764;;;;
2019/07/21 18:49:10;;;;;;;6;3.7;;;;;;;24.67;62.48828;966.6082;;;;
2019/07/21 18:51:35;;;;;;;3.9;3.5;;;;;;;24.53;63.75098;966.6661;;;;
2019/07/21 18:54:00;;;;;;;5.3;3.2;;;;;;;24.44;63.18164;966.6874;;;;
2019/07/21 18:56:26;;;;;;;4;3.6;;;;;;;24.54;63.77637;966.7233;;;;
2019/07/21 18:58:51;;;;;;;4.7;3.7;;;;;;;24.51;63.65332;966.7608;;;;
2019/07/21 19:01:16;;;;;;;4.6;3.8;;;;;;;24.42;65.25586;966.7901;;;;
2019/07/21 19:03:41;;;;;;;5.1;3.9;;;;;;;24.31;64.58691;966.7883;;;;
2019/07/21 19:06:06;;;;;;;4.4;3.7;;;;;;;24.3;64.57227;966.8447;;;;
2019/07/21 19:08:31;;;;;;;4.9;4.1;;;;;;;24.21;65.46289;966.86;;;;
2019/07/21 19:10:56;;;;;;;4.4;3.4;;;;;;;24.19;65.69727;966.8328;;;;
2019/07/21 19:13:21;;;;;;;4.9;3.9;;;;;;;24.17;65.71777;966.9073;;;;
2019/07/21 19:15:46;;;;;;;5;3.9;;;;;;;24.12;65.66406;966.896;;;;
2019/07/21 19:18:11;;;;;;;3.9;3.6;;;;;;;24.1;66.33691;966.959;;;;
2019/07/21 19:20:36;;;;;;;4.9;3.7;;;;;;;23.97;66.33105;966.9469;;;;
2019/07/21 19:23:01;;;;;;;4;3.4;;;;;;;24.01;66.30078;966.9625;;;;
2019/07/21 19:25:27;;;;;;;5;3.6;;;;;;;23.87;65.81641;966.9381;;;;
2019/07/21 19:27:52;;;;;;;4.3;3.6;;;;;;;23.83;66.49805;966.929;;;;
2019/07/21 19:30:17;;;;;;;5.3;3.8;;;;;;;23.87;66.25586;966.9714;;;;
2019/07/21 19:32:42;;;;;;;4.2;3.6;;;;;;;23.91;66.01172;966.9832;;;;
2019/07/21 19:35:07;;;;;;;3.7;3.3;;;;;;;24.05;65.89063;967.0575;;;;
2019/07/21 19:37:32;;;;;;;3.8;3.4;;;;;;;24.12;65.33008;967.1094;;;;
2019/07/21 19:39:57;;;;;;;3.9;3.4;;;;;;;24.01;65.80078;967.1735;;;;
2019/07/21 19:42:22;;;;;;;4.4;3.7;;;;;;;23.91;66.07227;967.1339;;;;
2019/07/21 19:44:47;;;;;;;4.1;3.7;;;;;;;23.91;66.8916;967.1055;;;;
2019/07/21 19:47:13;;;;;;;6.2;4.3;;;;;;;23.77;68.08984;967.1236;;;;
2019/07/21 19:49:38;;;;;;;5;3.6;;;;;;;23.79;66.13672;967.1314;;;;
2019/07/21 19:52:03;;;;;;;4;3.6;;;;;;;23.77;66.13379;967.1817;;;;
2019/07/21 19:54:29;;;;;;;4.8;4.1;;;;;;;23.79;66.43359;967.1916;;;;
2019/07/21 19:56:53;;;;;;;4.6;3.8;;;;;;;23.91;65.46582;967.2198;;;;
2019/07/21 19:59:18;;;;;;;4.2;3.8;;;;;;;23.83;67.17383;967.1721;;;;
2019/07/21 20:01:44;;;;;;;4.1;3.7;;;;;;;23.77;68.70801;967.2858;;;;
2019/07/21 20:04:09;;;;;;;5.1;3.9;;;;;;;23.71;65.70996;967.2603;;;;
2019/07/21 20:06:34;;;;;;;4.6;4.1;;;;;;;23.68;66.00195;967.2464;;;;
2019/07/21 20:08:59;;;;;;;4.2;3.9;;;;;;;23.72;67.53711;967.2444;;;;
2019/07/21 20:11:24;;;;;;;4.1;3.5;;;;;;;23.74;66.10645;967.239;;;;
2019/07/21 20:13:49;;;;;;;4;3.6;;;;;;;23.79;64.54785;967.2922;;;;
2019/07/21 20:16:15;;;;;;;4;3.7;;;;;;;23.86;64.33105;967.2925;;;;
2019/07/21 20:18:40;;;;;;;4.8;3.8;;;;;;;23.84;64.25879;967.2209;;;;
2019/07/21 20:21:05;;;;;;;4.8;4;;;;;;;23.83;64.71777;967.1916;;;;
2019/07/21 20:23:31;;;;;;;3.8;3.5;;;;;;;23.8;65.01172;967.2111;;;;
2019/07/21 20:25:56;;;;;;;4.1;3.5;;;;;;;23.79;65.44922;967.1949;;;;
2019/07/21 20:28:21;;;;;;;4.4;4;;;;;;;23.78;65.83789;967.2115;;;;
2019/07/21 20:30:46;;;;;;;4;3.5;;;;;;;23.76;65.12305;967.1972;;;;
2019/07/21 20:33:11;;;;;;;6.6;4.1;;;;;;;23.75;66.32031;967.1937;;;;
2019/07/21 20:35:36;;;;;;;4.8;3.6;;;;;;;23.68;67.70898;967.135;;;;
2019/07/21 20:38:02;;;;;;;4.4;3.9;;;;;;;23.58;68.31055;967.1945;;;;
2019/07/21 20:40:27;;;;;;;5.8;3.7;;;;;;;23.49;68.49805;967.2088;;;;
2019/07/21 20:42:52;;;;;;;4.2;3.7;;;;;;;23.44;69.42578;967.243;;;;
2019/07/21 20:45:17;;;;;;;4.2;3.8;;;;;;;23.35;70.16016;967.2415;;;;
2019/07/21 20:47:42;;;;;;;4.7;4.2;;;;;;;23.27;70.2998;967.3045;;;;
2019/07/21 20:50:07;;;;;;;5.6;4.6;;;;;;;23.18;70.12012;967.3286;;;;
2019/07/21 20:52:33;;;;;;;5.6;4.7;;;;;;;23.15;70.23438;967.3699;;;;
2019/07/21 20:54:58;;;;;;;6;4.6;;;;;;;23.13;70.64551;967.3903;;;;
2019/07/21 20:57:23;;;;;;;5.2;4.8;;;;;;;23.09;72.17969;967.3791;;;;
2019/07/21 20:59:48;;;;;;;4.9;4.4;;;;;;;23.03;70.72461;967.445;;;;
2019/07/21 21:02:13;;;;;;;6.5;4.5;;;;;;;23.03;71.29297;967.4158;;;;
2019/07/21 21:04:38;;;;;;;5.2;3.9;;;;;;;23.01;70.89941;967.4421;;;;
2019/07/21 21:07:03;;;;;;;5.8;4.5;;;;;;;22.98;72.63379;967.4711;;;;
2019/07/21 21:09:29;;;;;;;5.8;5.1;;;;;;;22.93;72.15332;967.4913;;;;
2019/07/21 21:11:54;;;;;;;6;5.4;;;;;;;22.94;70.24902;967.5045;;;;
2019/07/21 21:14:19;;;;;;;5.6;5;;;;;;;22.88;70.78516;967.5048;;;;
2019/07/21 21:16:44;;;;;;;6.2;5.2;;;;;;;22.89;69.51855;967.5073;;;;
2019/07/21 21:19:09;;;;;;;5.3;4.8;;;;;;;22.87;69.37207;967.5308;;;;
2019/07/21 21:21:34;;;;;;;5.7;5.1;;;;;;;22.79;69.96484;967.5252;;;;
2019/07/21 21:24:00;;;;;;;5.7;5;;;;;;;22.75;70.29004;967.5983;;;;
2019/07/21 21:26:25;;;;;;;5.2;4.7;;;;;;;22.72;70.47363;967.6487;;;;
2019/07/21 21:28:50;;;;;;;5.5;4.8;;;;;;;22.65;70.58203;967.6564;;;;
2019/07/21 21:31:15;;;;;;;7;5.9;;;;;;;22.57;72.32031;967.6019;;;;
2019/07/21 21:33:40;;;;;;;6;5.3;;;;;;;22.51;72.12012;967.5605;;;;
2019/07/21 21:36:06;;;;;;;7.6;6.4;;;;;;;22.41;72.24609;967.5985;;;;
2019/07/21 21:38:31;;;;;;;5.9;5;;;;;;;22.38;71.76953;967.6813;;;;
2019/07/21 21:40:56;;;;;;;7.1;5.1;;;;;;;22.35;72.31934;967.6976;;;;
2019/07/21 21:43:21;;;;;;;6;4.9;;;;;;;22.31;72.99902;967.76;;;;
2019/07/21 21:45:46;;;;;;;6.8;5;;;;;;;22.27;74.01855;967.7833;;;;
2019/07/21 21:48:11;;;;;;;6.1;5.2;;;;;;;22.18;75.00977;967.796;;;;
2019/07/21 21:50:36;;;;;;;6.3;5;;;;;;;22.13;74.69336;967.7946;;;;
2019/07/21 21:53:02;;;;;;;7;5.2;;;;;;;22.1;74.50098;967.8123;;;;
2019/07/21 21:55:27;;;;;;;6.2;5.6;;;;;;;22.11;75.8125;967.83;;;;
2019/07/21 21:57:52;;;;;;;6.1;5.5;;;;;;;22.05;76.52441;967.8117;;;;
2019/07/21 22:00:29;;;;;;;6.6;5.9;;;;;;;21.98;76.58301;967.8347;;;;
2019/07/21 22:02:42;;;;;;;8.2;6.1;;;;;;;21.99;76.70215;967.8714;;;;
2019/07/21 22:05:08;;;;;;;6.6;5.8;;;;;;;22.02;76.54297;967.8527;;;;
2019/07/21 22:07:33;;;;;;;6.7;6;;;;;;;21.96;76.92188;967.8276;;;;
2019/07/21 22:09:58;;;;;;;7.4;6.2;;;;;;;21.92;77.41016;967.902;;;;
2019/07/21 22:12:23;;;;;;;7.1;6.4;;;;;;;21.88;76.91895;967.8668;;;;
2019/07/21 22:14:48;;;;;;;8.1;6.8;;;;;;;21.81;77.71094;967.9515;;;;
2019/07/21 22:17:13;;;;;;;6.9;6.2;;;;;;;21.84;77.24316;967.9494;;;;
2019/07/21 22:19:38;;;;;;;6.9;6.2;;;;;;;21.85;77.20703;968.0408;;;;
2019/07/21 22:22:03;;;;;;;7;6.3;;;;;;;21.91;76.74707;968.0316;;;;
2019/07/21 22:24:28;;;;;;;6.4;5.8;;;;;;;21.95;75.9043;968.0259;;;;
2019/07/21 22:26:53;;;;;;;5.6;5.1;;;;;;;22.05;75.66211;968.0483;;;;
2019/07/21 22:29:18;;;;;;;5.8;5.2;;;;;;;22.07;74.82617;967.9972;;;;
2019/07/21 22:31:43;;;;;;;7.6;6.4;;;;;;;22.06;74.91699;968.0158;;;;
2019/07/21 22:34:09;;;;;;;7.5;6.8;;;;;;;22.1;75.16113;968.03;;;;
2019/07/21 22:36:34;;;;;;;6.7;6;;;;;;;22.14;75.15527;968.0262;;;;
2019/07/21 22:38:59;;;;;;;6.6;6;;;;;;;22.05;77.44531;967.9911;;;;
2019/07/21 22:41:24;;;;;;;6.5;5.8;;;;;;;21.98;77.2207;967.9983;;;;
2019/07/21 22:43:49;;;;;;;6.4;5.8;;;;;;;21.86;77.4707;968.0728;;;;
2019/07/21 22:46:14;;;;;;;7.4;5.8;;;;;;;21.75;78.35059;968.0883;;;;
2019/07/21 22:48:39;;;;;;;6.2;5.6;;;;;;;21.67;79.20801;968.0676;;;;
2019/07/21 22:51:04;;;;;;;7.2;6;;;;;;;21.57;79.27344;968.1467;;;;
2019/07/21 22:53:29;;;;;;;6.8;6;;;;;;;21.58;79.4043;968.1275;;;;
2019/07/21 22:55:54;;;;;;;6.2;5.6;;;;;;;21.52;79.72559;968.0931;;;;
2019/07/21 22:58:20;;;;;;;6.8;6.1;;;;;;;21.47;80.03418;968.067;;;;
2019/07/21 23:00:45;;;;;;;6.5;5.9;;;;;;;21.42;80.2627;968.1017;;;;
2019/07/21 23:03:10;;;;;;;6.9;5.7;;;;;;;21.38;80.43066;968.0728;;;;
2019/07/21 23:05:35;;;;;;;7.2;6.5;;;;;;;21.37;80.02832;968.0541;;;;
2019/07/21 23:08:00;;;;;;;6.8;6.1;;;;;;;21.33;80.76367;967.9978;;;;
2019/07/21 23:10:25;;;;;;;6.5;5.9;;;;;;;21.29;80.93359;967.993;;;;
2019/07/21 23:12:50;;;;;;;7.4;6.4;;;;;;;21.25;81.2793;967.9993;;;;
2019/07/21 23:15:15;;;;;;;7.6;6.8;;;;;;;21.24;80.77051;968.0341;;;;
2019/07/21 23:17:40;;;;;;;7.7;6.9;;;;;;;21.22;81.07422;967.9922;;;;
2019/07/21 23:20:05;;;;;;;7.5;6.7;;;;;;;21.15;81.80371;967.9662;;;;
2019/07/21 23:22:31;;;;;;;7.2;6.4;;;;;;;21.14;82.14355;967.9363;;;;
2019/07/21 23:24:56;;;;;;;10;6.6;;;;;;;21.11;82.51465;967.9085;;;;
2019/07/21 23:27:21;;;;;;;7.7;6.9;;;;;;;21.06;82.74219;967.9007;;;;
2019/07/21 23:29:46;;;;;;;7.2;6.6;;;;;;;21.02;82.87695;967.8801;;;;
2019/07/21 23:32:12;;;;;;;7.8;6.6;;;;;;;20.97;83.55176;967.7896;;;;
2019/07/21 23:34:37;;;;;;;7.7;6.4;;;;;;;20.98;83.45801;967.7928;;;;
2019/07/21 23:37:02;;;;;;;7.8;7;;;;;;;20.96;83.53711;967.7961;;;;
2019/07/21 23:39:27;;;;;;;7.6;6.8;;;;;;;20.95;83.3125;967.8078;;;;
2019/07/21 23:41:52;;;;;;;7.6;6.8;;;;;;;20.93;83.64941;967.808;;;;
2019/07/21 23:44:18;;;;;;;7.8;7;;;;;;;20.9;83.67969;967.7958;;;;
2019/07/21 23:46:43;;;;;;;8.1;6.7;;;;;;;20.89;84.10059;967.8167;;;;
2019/07/21 23:49:08;;;;;;;8.1;6.9;;;;;;;20.81;83.94531;967.7866;;;;
2019/07/21 23:51:33;;;;;;;9.3;6.6;;;;;;;20.83;83.60742;967.7831;;;;
2019/07/21 23:53:58;;;;;;;8.1;6.4;;;;;;;20.82;83.38184;967.7626;;;;
2019/07/21 23:56:24;;;;;;;7.3;6.4;;;;;;;20.82;83.56836;967.7566;;;;
2019/07/21 23:58:49;;;;;;;8.2;7;;;;;;;20.84;83.57422;967.72;;;;
